createdAt,value
2023-02-18T00:01:26.059Z,0.80
2023-02-18T00:03:53.457Z,0.70
2023-02-18T00:06:27.551Z,1.02
2023-02-18T00:08:55.452Z,0.85
2023-02-18T00:11:22.306Z,0.82
2023-02-18T00:13:54.689Z,1.10
2023-02-18T00:16:22.221Z,0.82
2023-02-18T00:18:49.338Z,0.60
2023-02-18T00:21:16.407Z,1.00
2023-02-18T00:23:44.138Z,0.90
2023-02-18T00:26:14.493Z,0.75
2023-02-18T00:28:41.998Z,0.60
2023-02-18T00:31:09.555Z,0.95
2023-02-18T00:33:37.076Z,0.70
2023-02-18T00:36:10.071Z,1.10
2023-02-18T00:38:37.176Z,1.02
2023-02-18T00:41:04.494Z,1.00
2023-02-18T00:43:31.816Z,1.08
2023-02-18T00:45:58.495Z,1.20
2023-02-18T00:48:25.418Z,1.30
2023-02-18T00:50:52.095Z,1.38
2023-02-18T00:53:18.817Z,0.82
2023-02-18T00:55:49.856Z,1.13
2023-02-18T00:58:17.162Z,1.10
2023-02-18T01:00:44.599Z,1.20
2023-02-18T01:03:12.447Z,1.63
2023-02-18T01:05:39.522Z,1.02
2023-02-18T01:08:08.139Z,1.48
2023-02-18T01:10:41.059Z,1.00
2023-02-18T01:13:12.085Z,1.48
2023-02-18T01:15:39.851Z,1.10
2023-02-18T01:18:07.962Z,0.85
2023-02-18T01:20:36.300Z,1.20
2023-02-18T01:23:03.693Z,1.17
2023-02-18T01:25:31.787Z,0.90
2023-02-18T01:27:58.524Z,1.17
2023-02-18T01:30:25.484Z,1.10
2023-02-18T01:32:52.174Z,1.08
2023-02-18T01:35:20.650Z,1.20
2023-02-18T01:37:47.922Z,1.13
2023-02-18T01:40:17.670Z,0.90
2023-02-18T01:42:44.819Z,1.10
2023-02-18T01:45:33.370Z,1.35
2023-02-18T01:48:23.698Z,1.05
2023-02-18T01:51:05.963Z,0.75
2023-02-18T01:53:46.292Z,0.90
2023-02-18T01:56:20.618Z,0.75
2023-02-18T01:58:48.114Z,0.95
2023-02-18T02:01:15.316Z,0.70
2023-02-18T02:03:42.032Z,1.00
2023-02-18T02:06:22.018Z,0.70
2023-02-18T02:08:52.822Z,0.90
2023-02-18T02:11:55.549Z,0.90
2023-02-18T02:14:46.631Z,0.60
2023-02-18T02:17:30.867Z,0.82
2023-02-18T02:20:29.086Z,0.80
2023-02-18T02:23:08.214Z,0.60
2023-02-18T02:26:02.784Z,0.70
2023-02-18T02:28:48.168Z,0.77
2023-02-18T02:31:36.646Z,0.40
2023-02-18T02:34:06.185Z,0.55
2023-02-18T02:37:06.767Z,0.45
2023-02-18T02:40:03.745Z,0.60
2023-02-18T02:42:49.631Z,0.70
2023-02-18T02:45:22.293Z,0.80
2023-02-18T02:48:08.409Z,0.57
2023-02-18T02:50:35.167Z,0.68
2023-02-18T02:53:08.129Z,0.50
2023-02-18T02:55:35.255Z,0.52
2023-02-18T02:58:02.525Z,0.50
2023-02-18T03:01:06.541Z,0.70
2023-02-18T03:03:54.481Z,0.80
2023-02-18T03:06:21.476Z,0.68
2023-02-18T03:08:48.813Z,0.47
2023-02-18T03:11:18.104Z,0.70
2023-02-18T03:13:59.558Z,0.85
2023-02-18T03:17:00.400Z,0.65
2023-02-18T03:19:26.921Z,0.77
2023-02-18T03:22:03.951Z,0.68
2023-02-18T03:24:34.921Z,0.65
2023-02-18T03:27:10.354Z,0.55
2023-02-18T03:29:37.252Z,0.70
2023-02-18T03:32:08.048Z,0.90
2023-02-18T03:34:41.103Z,0.47
2023-02-18T03:37:10.072Z,0.70
2023-02-18T03:39:39.381Z,0.60
2023-02-18T03:42:06.078Z,0.85
2023-02-18T03:44:33.232Z,0.70
2023-02-18T03:47:00.051Z,0.60
2023-02-18T03:49:27.152Z,0.70
2023-02-18T03:51:53.685Z,0.98
2023-02-18T03:54:20.624Z,0.73
2023-02-18T03:56:47.368Z,0.63
2023-02-18T03:59:14.179Z,0.50
2023-02-18T04:01:41.026Z,0.60
2023-02-18T04:04:08.149Z,0.50
2023-02-18T04:06:35.202Z,0.50
2023-02-18T04:09:02.896Z,0.60
2023-02-18T04:11:29.634Z,0.55
2023-02-18T04:13:56.306Z,0.50
2023-02-18T04:16:22.963Z,0.50
2023-02-18T04:18:49.749Z,0.60
2023-02-18T04:21:16.315Z,0.68
2023-02-18T04:23:43.281Z,0.60
2023-02-18T04:26:10.242Z,0.65
2023-02-18T04:28:37.170Z,0.60
2023-02-18T04:31:03.904Z,0.52
2023-02-18T04:33:30.974Z,0.70
2023-02-18T04:35:57.686Z,0.50
2023-02-18T04:38:24.370Z,0.50
2023-02-18T04:40:51.406Z,0.60
2023-02-18T04:43:18.060Z,0.60
2023-02-18T04:45:44.753Z,0.65
2023-02-18T04:48:11.499Z,0.50
2023-02-18T04:50:38.286Z,0.47
2023-02-18T04:53:04.976Z,0.43
2023-02-18T04:55:31.849Z,0.47
2023-02-18T04:57:58.544Z,0.40
2023-02-18T05:00:25.196Z,0.40
2023-02-18T05:02:52.001Z,0.60
2023-02-18T05:05:18.633Z,0.60
2023-02-18T05:07:45.450Z,0.70
2023-02-18T05:10:16.246Z,0.50
2023-02-18T05:12:42.976Z,0.47
2023-02-18T05:15:10.228Z,0.40
2023-02-18T05:17:36.898Z,0.50
2023-02-18T05:20:04.056Z,0.60
2023-02-18T05:22:30.954Z,0.55
2023-02-18T05:24:57.470Z,0.40
2023-02-18T05:27:24.339Z,0.60
2023-02-18T05:29:50.900Z,0.50
2023-02-18T05:32:17.724Z,0.50
2023-02-18T05:34:44.511Z,0.47
2023-02-18T05:37:11.118Z,0.50
2023-02-18T05:39:37.840Z,0.60
2023-02-18T05:42:04.602Z,0.70
2023-02-18T05:44:31.391Z,0.40
2023-02-18T05:46:59.928Z,0.73
2023-02-18T05:49:28.625Z,0.60
2023-02-18T05:51:55.789Z,0.68
2023-02-18T05:54:23.460Z,0.40
2023-02-18T05:56:50.471Z,0.40
2023-02-18T05:59:17.466Z,0.40
2023-02-18T06:01:44.568Z,0.50
2023-02-18T06:04:11.426Z,0.47
2023-02-18T06:06:38.598Z,0.43
2023-02-18T06:09:06.413Z,0.38
2023-02-18T06:11:33.671Z,0.43
2023-02-18T06:14:00.565Z,0.55
2023-02-18T06:16:27.625Z,0.20
2023-02-18T06:18:54.296Z,0.55
2023-02-18T06:21:21.256Z,0.40
2023-02-18T06:23:47.805Z,0.35
2023-02-18T06:26:14.932Z,0.40
2023-02-18T06:28:41.666Z,0.40
2023-02-18T06:31:08.515Z,0.28
2023-02-18T06:33:35.346Z,0.35
2023-02-18T06:36:11.576Z,0.30
2023-02-18T06:38:40.826Z,0.40
2023-02-18T06:41:07.978Z,0.30
2023-02-18T06:43:35.444Z,0.22
2023-02-18T06:46:02.557Z,0.30
2023-02-18T06:48:29.558Z,0.40
2023-02-18T06:50:56.263Z,0.28
2023-02-18T06:53:23.301Z,0.22
2023-02-18T06:55:50.037Z,0.20
2023-02-18T06:58:17.886Z,0.40
2023-02-18T07:00:44.864Z,0.32
2023-02-18T07:03:14.331Z,0.30
2023-02-18T07:05:41.626Z,0.22
2023-02-18T07:08:08.715Z,0.90
2023-02-18T07:10:35.630Z,0.57
2023-02-18T07:13:05.321Z,0.30
2023-02-18T07:15:32.019Z,0.17
2023-02-18T07:17:58.683Z,0.20
2023-02-18T07:20:27.068Z,0.45
2023-02-18T07:22:57.244Z,0.20
2023-02-18T07:25:24.839Z,0.28
2023-02-18T07:27:52.451Z,0.10
2023-02-18T07:30:20.560Z,0.30
2023-02-18T07:32:47.341Z,0.20
2023-02-18T07:35:15.183Z,0.20
2023-02-18T07:37:49.234Z,0.22
2023-02-18T07:40:20.759Z,0.10
2023-02-18T07:42:48.056Z,0.20
2023-02-18T07:45:15.141Z,0.25
2023-02-18T07:47:42.729Z,0.20
2023-02-18T07:50:10.341Z,0.30
2023-02-18T07:52:36.947Z,0.30
2023-02-18T07:55:04.064Z,0.43
2023-02-18T07:57:30.708Z,0.30
2023-02-18T07:59:57.255Z,0.22
2023-02-18T08:02:24.992Z,0.22
2023-02-18T08:04:51.616Z,0.25
2023-02-18T08:07:22.088Z,0.13
2023-02-18T08:09:53.473Z,0.52
2023-02-18T08:12:20.135Z,0.28
2023-02-18T08:14:46.910Z,0.28
2023-02-18T08:17:13.470Z,0.22
2023-02-18T08:19:40.051Z,0.30
2023-02-18T08:22:06.792Z,0.30
2023-02-18T08:24:33.443Z,0.30
2023-02-18T08:27:01.570Z,0.30
2023-02-18T08:29:29.760Z,0.30
2023-02-18T08:31:58.485Z,0.50
2023-02-18T08:34:25.481Z,0.32
2023-02-18T08:36:52.361Z,0.40
2023-02-18T08:39:19.245Z,0.22
2023-02-18T08:41:45.906Z,0.40
2023-02-18T08:44:12.852Z,0.40
2023-02-18T08:46:39.463Z,0.45
2023-02-18T08:49:06.617Z,0.40
2023-02-18T08:51:33.800Z,0.30
2023-02-18T08:54:00.648Z,0.30
2023-02-18T08:56:27.265Z,0.30
2023-02-18T08:58:54.306Z,0.30
2023-02-18T09:01:20.935Z,0.50
2023-02-18T09:03:48.649Z,0.40
2023-02-18T09:06:15.882Z,0.50
2023-02-18T09:08:42.917Z,0.38
2023-02-18T09:11:11.310Z,0.80
2023-02-18T09:13:38.209Z,0.30
2023-02-18T09:16:13.446Z,0.32
2023-02-18T09:18:41.294Z,0.30
2023-02-18T09:21:09.914Z,0.20
2023-02-18T09:23:39.038Z,0.30
2023-02-18T09:26:07.441Z,0.20
2023-02-18T09:28:34.980Z,0.25
2023-02-18T09:31:11.732Z,0.30
2023-02-18T09:33:43.262Z,0.55
2023-02-18T09:36:11.160Z,0.20
2023-02-18T09:38:38.061Z,0.20
2023-02-18T09:41:11.381Z,0.30
2023-02-18T09:43:48.501Z,0.20
2023-02-18T09:46:22.777Z,0.28
2023-02-18T09:48:51.236Z,0.20
2023-02-18T09:51:19.367Z,0.30
2023-02-18T09:53:46.945Z,0.10
2023-02-18T09:56:17.634Z,0.30
2023-02-18T09:58:47.368Z,0.23
2023-02-18T10:01:29.227Z,0.22
2023-02-18T10:04:03.694Z,0.93
2023-02-18T10:06:35.176Z,0.40
2023-02-18T10:09:06.279Z,0.25
2023-02-18T10:11:41.918Z,0.30
2023-02-18T10:14:14.738Z,0.25
2023-02-18T10:16:44.204Z,0.15
2023-02-18T10:19:27.796Z,0.30
2023-02-18T10:21:55.777Z,0.30
2023-02-18T10:24:27.395Z,0.25
2023-02-18T10:26:55.574Z,0.35
2023-02-18T10:29:23.693Z,0.30
2023-02-18T10:32:13.355Z,0.35
2023-02-18T10:34:42.326Z,0.13
2023-02-18T10:37:22.859Z,0.30
2023-02-18T10:39:59.677Z,0.20
2023-02-18T10:43:11.057Z,0.20
2023-02-18T10:46:05.606Z,0.30
2023-02-18T10:48:38.284Z,0.20
2023-02-18T10:51:16.640Z,0.30
2023-02-18T10:53:45.544Z,0.30
2023-02-18T10:56:41.455Z,0.20
2023-02-18T10:59:25.804Z,0.10
2023-02-18T11:01:59.984Z,0.30
2023-02-18T11:04:39.805Z,0.17
2023-02-18T11:07:14.602Z,0.30
2023-02-18T11:09:50.197Z,0.20
2023-02-18T11:12:41.776Z,0.52
2023-02-18T11:15:14.255Z,0.20
2023-02-18T11:17:43.277Z,0.20
2023-02-18T11:20:23.861Z,0.10
2023-02-18T11:22:51.069Z,0.27
2023-02-18T11:25:33.621Z,0.20
2023-02-18T11:28:20.086Z,0.20
2023-02-18T11:30:50.499Z,0.30
2023-02-18T11:33:22.943Z,0.22
2023-02-18T11:35:55.958Z,0.32
2023-02-18T11:38:36.795Z,0.30
2023-02-18T11:41:13.380Z,0.30
2023-02-18T11:43:48.207Z,0.20
2023-02-18T11:46:23.049Z,0.10
2023-02-18T11:48:51.637Z,0.30
2023-02-18T11:51:24.277Z,0.30
2023-02-18T11:54:05.978Z,0.20
2023-02-18T11:56:35.371Z,0.30
2023-02-18T11:59:04.268Z,0.30
2023-02-18T12:01:41.870Z,0.20
2023-02-18T12:04:14.760Z,0.28
2023-02-18T12:06:58.700Z,0.20
2023-02-18T12:09:31.619Z,0.40
2023-02-18T12:12:06.534Z,0.30
2023-02-18T12:14:33.645Z,0.40
2023-02-18T12:17:37.804Z,0.20
2023-02-18T12:20:26.341Z,0.10
2023-02-18T12:23:14.833Z,0.30
2023-02-18T12:26:26.607Z,0.35
2023-02-18T12:32:01.597Z,0.20
2023-02-18T12:34:31.205Z,0.20
2023-02-18T12:37:25.889Z,0.20
2023-02-18T12:40:07.723Z,0.28
2023-02-18T12:42:43.449Z,0.20
2023-02-18T12:45:59.139Z,0.35
2023-02-18T12:48:55.278Z,0.32
2023-02-18T12:51:30.542Z,0.25
2023-02-18T12:54:18.213Z,0.20
2023-02-18T12:57:04.913Z,0.20
2023-02-18T12:59:49.781Z,0.30
2023-02-18T13:02:50.630Z,0.20
2023-02-18T13:05:23.231Z,0.20
2023-02-18T13:07:56.120Z,0.32
2023-02-18T13:10:51.702Z,0.35
2023-02-18T13:13:25.904Z,0.20
2023-02-18T13:15:55.396Z,0.20
2023-02-18T13:18:31.753Z,0.20
2023-02-18T13:21:05.486Z,0.30
2023-02-18T13:23:36.200Z,0.25
2023-02-18T13:26:06.463Z,0.32
2023-02-18T13:28:40.692Z,0.30
2023-02-18T13:32:10.918Z,0.30
2023-02-18T13:34:40.487Z,0.28
2023-02-18T13:37:22.342Z,0.30
2023-02-18T13:39:57.473Z,0.32
2023-02-18T13:42:31.956Z,0.28
2023-02-18T13:44:58.845Z,0.15
2023-02-18T13:47:49.465Z,0.30
2023-02-18T13:50:16.070Z,0.32
2023-02-18T13:52:44.306Z,0.30
2023-02-18T13:55:23.827Z,0.38
2023-02-18T13:57:54.735Z,0.30
2023-02-18T14:00:25.352Z,0.30
2023-02-18T14:03:01.293Z,0.47
2023-02-18T14:05:41.485Z,0.38
2023-02-18T14:08:29.580Z,0.22
2023-02-18T14:11:11.382Z,0.43
2023-02-18T14:13:52.518Z,0.30
2023-02-18T14:16:19.786Z,0.38
2023-02-18T14:18:46.387Z,0.40
2023-02-18T14:21:13.251Z,0.45
2023-02-18T14:23:51.522Z,0.30
2023-02-18T14:26:23.229Z,0.30
2023-02-18T14:29:07.094Z,0.50
2023-02-18T14:31:56.358Z,0.30
2023-02-18T14:34:42.348Z,0.20
2023-02-18T14:37:17.927Z,0.30
2023-02-18T14:40:06.570Z,0.20
2023-02-18T14:43:01.240Z,0.30
2023-02-18T14:45:40.009Z,0.28
2023-02-18T14:48:31.017Z,0.20
2023-02-18T14:51:00.182Z,0.20
2023-02-18T14:53:28.659Z,0.20
2023-02-18T14:56:00.831Z,0.30
2023-02-18T14:58:36.761Z,0.30
2023-02-18T15:01:17.407Z,0.40
2023-02-18T15:03:44.249Z,0.60
2023-02-18T15:06:37.724Z,0.20
2023-02-18T15:09:22.450Z,0.40
2023-02-18T15:11:51.652Z,0.20
2023-02-18T15:14:26.561Z,0.20
2023-02-18T15:16:55.204Z,0.30
2023-02-18T15:19:27.047Z,0.20
2023-02-18T15:21:56.686Z,0.20
2023-02-18T15:24:38.094Z,0.30
2023-02-18T15:29:43.141Z,0.50
2023-02-18T15:32:27.301Z,0.20
2023-02-18T15:35:03.500Z,0.30
2023-02-18T15:37:30.908Z,0.50
2023-02-18T15:39:58.113Z,0.20
2023-02-18T15:42:33.748Z,0.20
2023-02-18T15:45:15.789Z,0.20
2023-02-18T15:48:04.192Z,0.20
2023-02-18T15:50:37.480Z,0.28
2023-02-18T15:53:08.502Z,0.40
2023-02-18T15:55:40.583Z,0.40
2023-02-18T15:58:22.345Z,0.30
2023-02-18T16:00:55.271Z,0.30
2023-02-18T16:03:25.664Z,0.30
2023-02-18T16:06:11.696Z,0.30
2023-02-18T16:08:41.277Z,0.40
2023-02-18T16:11:13.362Z,0.20
2023-02-18T16:13:48.127Z,0.10
2023-02-18T16:16:41.240Z,0.30
2023-02-18T16:19:24.439Z,0.98
2023-02-18T16:21:51.288Z,0.25
2023-02-18T16:24:26.281Z,0.50
2023-02-18T16:27:01.243Z,0.20
2023-02-18T16:29:41.220Z,0.38
2023-02-18T16:32:08.039Z,0.32
2023-02-18T16:34:35.914Z,1.05
2023-02-18T16:37:21.761Z,0.22
2023-02-18T16:39:51.917Z,0.40
2023-02-18T16:42:18.791Z,0.20
2023-02-18T16:44:45.549Z,0.20
2023-02-18T16:47:16.208Z,0.30
2023-02-18T16:49:49.336Z,1.58
2023-02-18T16:52:18.513Z,0.30
2023-02-18T16:54:47.709Z,0.20
2023-02-18T16:57:14.663Z,0.20
2023-02-18T16:59:41.567Z,0.20
2023-02-18T17:02:24.858Z,0.30
2023-02-18T17:04:57.191Z,0.40
2023-02-18T17:07:23.771Z,0.20
2023-02-18T17:09:50.428Z,0.20
2023-02-18T17:12:17.104Z,0.40
2023-02-18T17:14:43.990Z,0.28
2023-02-18T17:17:13.493Z,0.50
2023-02-18T17:19:40.261Z,0.30
2023-02-18T17:22:09.797Z,0.40
2023-02-18T17:24:36.608Z,0.32
2023-02-18T17:27:03.345Z,0.45
2023-02-18T17:29:30.011Z,0.40
2023-02-18T17:31:57.893Z,1.10
2023-02-18T17:34:27.660Z,0.55
2023-02-18T17:36:54.828Z,0.50
2023-02-18T17:39:21.977Z,0.90
2023-02-18T17:41:48.616Z,0.55
2023-02-18T17:44:16.869Z,0.40
2023-02-18T17:46:43.515Z,0.60
2023-02-18T17:49:10.274Z,0.40
2023-02-18T17:51:38.459Z,0.30
2023-02-18T17:54:16.414Z,0.40
2023-02-18T17:56:43.834Z,0.30
2023-02-18T17:59:10.925Z,0.50
2023-02-18T18:01:37.834Z,0.30
2023-02-18T18:04:04.776Z,0.28
2023-02-18T18:06:36.096Z,0.35
2023-02-18T18:09:02.639Z,0.30
2023-02-18T18:11:29.285Z,0.30
2023-02-18T18:13:57.064Z,0.20
2023-02-18T18:16:23.717Z,0.38
2023-02-18T18:18:50.459Z,0.57
2023-02-18T18:21:24.376Z,0.50
2023-02-18T18:23:51.505Z,0.40
2023-02-18T18:26:18.123Z,0.75
2023-02-18T18:28:44.692Z,0.50
2023-02-18T18:31:18.837Z,0.98
2023-02-18T18:33:51.483Z,1.63
2023-02-18T18:36:20.029Z,1.20
2023-02-18T18:38:47.078Z,1.42
2023-02-18T18:41:19.340Z,0.70
2023-02-18T18:43:46.582Z,0.90
2023-02-18T18:46:13.885Z,0.60
2023-02-18T18:48:40.527Z,0.40
2023-02-18T18:51:07.644Z,0.40
2023-02-18T18:53:35.252Z,0.30
2023-02-18T18:56:05.171Z,0.40
2023-02-18T18:58:32.073Z,0.30
2023-02-18T19:01:01.958Z,0.50
2023-02-18T19:03:29.904Z,0.28
2023-02-18T19:05:56.957Z,0.40
2023-02-18T19:08:24.158Z,0.45
2023-02-18T19:10:53.670Z,0.57
2023-02-18T19:13:23.026Z,0.40
2023-02-18T19:15:53.270Z,0.35
2023-02-18T19:18:21.360Z,0.30
2023-02-18T19:20:48.442Z,0.40
2023-02-18T19:23:15.083Z,0.65
2023-02-18T19:25:42.194Z,0.50
2023-02-18T19:28:13.610Z,0.40
2023-02-18T19:30:42.418Z,0.43
2023-02-18T19:33:12.548Z,0.40
2023-02-18T19:35:40.817Z,0.40
2023-02-18T19:38:10.172Z,0.50
2023-02-18T19:40:36.956Z,0.65
2023-02-18T19:43:04.014Z,0.40
2023-02-18T19:45:30.830Z,0.50
2023-02-18T19:47:59.180Z,0.40
2023-02-18T19:50:27.812Z,0.32
2023-02-18T19:52:56.142Z,0.50
2023-02-18T19:55:23.317Z,0.57
2023-02-18T19:57:50.838Z,0.50
2023-02-18T20:00:20.403Z,0.38
2023-02-18T20:02:47.112Z,0.70
2023-02-18T20:05:14.229Z,0.75
2023-02-18T20:07:42.302Z,0.52
2023-02-18T20:10:14.059Z,0.47
2023-02-18T20:12:41.245Z,0.60
2023-02-18T20:15:08.778Z,0.60
2023-02-18T20:17:39.763Z,0.68
2023-02-18T20:20:07.425Z,0.55
2023-02-18T20:22:34.070Z,0.47
2023-02-18T20:25:00.806Z,0.30
2023-02-18T20:27:27.416Z,0.40
2023-02-18T20:29:53.989Z,0.30
2023-02-18T20:32:20.740Z,0.60
2023-02-18T20:34:47.412Z,0.40
2023-02-18T20:37:14.129Z,0.40
2023-02-18T20:39:41.150Z,0.50
2023-02-18T20:42:15.909Z,0.38
2023-02-18T20:44:44.013Z,0.50
2023-02-18T20:47:12.794Z,0.57
2023-02-18T20:49:40.480Z,0.32
2023-02-18T20:52:08.052Z,0.30
2023-02-18T20:54:34.840Z,0.38
2023-02-18T20:57:01.964Z,0.40
2023-02-18T20:59:33.379Z,0.40
2023-02-18T21:02:00.469Z,0.40
2023-02-18T21:04:27.416Z,0.40
2023-02-18T21:06:57.102Z,0.32
2023-02-18T21:09:24.684Z,0.47
2023-02-18T21:11:51.360Z,1.38
2023-02-18T21:14:18.039Z,0.98
2023-02-18T21:16:44.825Z,0.68
2023-02-18T21:19:14.467Z,0.45
2023-02-18T21:21:41.902Z,0.50
2023-02-18T21:24:09.063Z,0.63
2023-02-18T21:26:36.211Z,0.60
2023-02-18T21:29:06.583Z,1.65
2023-02-18T21:31:36.148Z,0.68
2023-02-18T21:34:04.555Z,6.95
2023-02-18T21:36:32.505Z,1.75
2023-02-18T21:39:02.136Z,3.00
2023-02-18T21:41:32.342Z,0.95
2023-02-18T21:43:58.970Z,0.60
2023-02-18T21:46:31.773Z,0.65
2023-02-18T21:49:02.134Z,0.77
2023-02-18T21:51:48.645Z,0.65
2023-02-18T21:54:16.829Z,5.30
2023-02-18T21:56:43.707Z,5.50
2023-02-18T21:59:10.408Z,3.83
2023-02-18T22:01:37.223Z,3.15
2023-02-18T22:04:04.148Z,3.33
2023-02-18T22:06:30.968Z,2.60
2023-02-18T22:09:00.818Z,2.70
2023-02-18T22:11:28.555Z,2.40
2023-02-18T22:13:55.536Z,1.13
2023-02-18T22:16:22.634Z,4.15
2023-02-18T22:18:50.395Z,1.38
2023-02-18T22:21:21.123Z,2.20
2023-02-18T22:23:48.007Z,4.43
2023-02-18T22:26:15.286Z,2.42
2023-02-18T22:28:42.095Z,1.10
2023-02-18T22:31:11.208Z,2.20
2023-02-18T22:33:38.726Z,1.42
2023-02-18T22:36:09.980Z,1.73
2023-02-18T22:38:37.919Z,2.35
2023-02-18T22:41:10.727Z,1.70
2023-02-18T22:43:37.944Z,1.20
2023-02-18T22:46:07.692Z,0.77
2023-02-18T22:48:35.994Z,1.70
2023-02-18T22:51:11.136Z,0.82
2023-02-18T22:53:38.798Z,1.20
2023-02-18T22:56:14.454Z,0.85
2023-02-18T22:58:43.252Z,1.00
2023-02-18T23:01:31.415Z,0.75
2023-02-18T23:04:03.050Z,0.70
2023-02-18T23:08:56.788Z,0.55
2023-02-18T23:11:23.479Z,0.70
2023-02-18T23:14:08.847Z,0.57
2023-02-18T23:16:57.529Z,0.60
2023-02-18T23:19:26.846Z,0.40
2023-02-18T23:21:53.831Z,0.55
2023-02-18T23:24:21.140Z,0.60
2023-02-18T23:26:48.633Z,0.65
2023-02-18T23:29:16.282Z,0.45
2023-02-18T23:31:43.178Z,0.70
2023-02-18T23:34:15.058Z,0.43
2023-02-18T23:36:43.140Z,0.55
2023-02-18T23:39:12.184Z,0.60
2023-02-18T23:41:42.192Z,0.70
2023-02-18T23:44:12.213Z,0.50
2023-02-18T23:46:38.965Z,0.43
2023-02-18T23:49:06.475Z,0.43
2023-02-18T23:51:33.507Z,0.60
2023-02-18T23:54:03.157Z,0.50
2023-02-18T23:56:29.927Z,0.50
2023-02-18T23:59:00.536Z,0.50
